createdAt,value
2024-02-12T00:02:32.281Z,8.50
2024-02-12T00:05:08.617Z,8.50
2024-02-12T00:07:44.441Z,8.50
2024-02-12T00:10:19.588Z,8.48
2024-02-12T00:12:54.554Z,8.40
2024-02-12T00:15:29.746Z,8.40
2024-02-12T00:18:04.437Z,8.40
2024-02-12T00:20:38.931Z,8.40
2024-02-12T00:23:13.650Z,8.40
2024-02-12T00:25:48.749Z,8.40
2024-02-12T00:28:27.380Z,8.40
2024-02-12T00:31:01.912Z,8.40
2024-02-12T00:33:49.743Z,8.40
2024-02-12T00:36:24.727Z,8.32
2024-02-12T00:39:01.821Z,8.38
2024-02-12T00:41:36.301Z,8.40
2024-02-12T00:44:11.279Z,8.40
2024-02-12T00:46:50.041Z,8.40
2024-02-12T00:49:24.913Z,8.40
2024-02-12T00:51:59.748Z,8.40
2024-02-12T00:54:36.171Z,8.40
2024-02-12T00:57:10.978Z,8.30
2024-02-12T00:59:45.385Z,8.30
2024-02-12T01:02:20.656Z,8.20
2024-02-12T01:04:56.924Z,8.20
2024-02-12T01:07:31.606Z,8.20
2024-02-12T01:10:06.482Z,8.20
2024-02-12T01:12:43.718Z,8.20
2024-02-12T01:15:18.958Z,8.10
2024-02-12T01:18:05.403Z,8.18
2024-02-12T01:20:46.598Z,8.20
2024-02-12T01:23:21.540Z,8.20
2024-02-12T01:25:57.274Z,8.20
2024-02-12T01:28:35.064Z,8.26
2024-02-12T01:31:12.058Z,8.26
2024-02-12T01:33:47.335Z,8.30
2024-02-12T01:36:24.213Z,8.20
2024-02-12T01:38:58.980Z,8.20
2024-02-12T01:41:35.817Z,8.14
2024-02-12T01:44:10.729Z,8.10
2024-02-12T01:46:50.450Z,8.10
2024-02-12T01:49:27.850Z,8.10
2024-02-12T01:52:02.589Z,8.10
2024-02-12T01:54:37.170Z,8.10
2024-02-12T01:57:12.103Z,8.10
2024-02-12T01:59:46.762Z,8.10
2024-02-12T02:02:21.996Z,8.10
2024-02-12T02:04:59.812Z,8.10
2024-02-12T02:07:34.780Z,8.10
2024-02-12T02:10:15.124Z,8.04
2024-02-12T02:12:50.885Z,8.00
2024-02-12T02:15:26.096Z,8.08
2024-02-12T02:18:01.712Z,8.10
2024-02-12T02:22:31.315Z,8.20
2024-02-12T02:25:06.981Z,8.20
2024-02-12T02:27:41.448Z,8.10
2024-02-12T02:30:21.015Z,8.10
2024-02-12T02:32:56.619Z,8.04
2024-02-12T02:35:31.872Z,8.00
2024-02-12T02:38:07.474Z,8.00
2024-02-12T02:40:44.342Z,8.00
2024-02-12T02:43:19.288Z,7.90
2024-02-12T02:45:53.862Z,7.90
2024-02-12T02:48:33.527Z,7.90
2024-02-12T02:51:09.145Z,7.84
2024-02-12T02:53:43.927Z,7.82
2024-02-12T02:56:18.873Z,7.82
2024-02-12T03:10:31.894Z,8.00
2024-02-12T03:13:08.354Z,8.00
2024-02-12T03:15:45.431Z,7.94
2024-02-12T03:18:21.824Z,7.90
2024-02-12T03:20:57.269Z,7.90
2024-02-12T03:23:34.855Z,7.90
2024-02-12T03:26:10.313Z,7.90
2024-02-12T03:28:45.113Z,7.90
2024-02-12T03:31:19.650Z,7.90
2024-02-12T03:33:54.857Z,7.92
2024-02-12T03:36:30.002Z,7.90
2024-02-12T03:39:09.794Z,7.90
2024-02-12T03:41:44.650Z,7.88
2024-02-12T03:44:19.337Z,7.80
2024-02-12T03:46:56.627Z,7.80
2024-02-12T03:49:48.669Z,7.70
2024-02-12T03:52:40.299Z,7.70
2024-02-12T03:55:30.865Z,7.70
2024-02-12T03:58:23.218Z,7.70
2024-02-12T04:00:57.664Z,7.68
2024-02-12T04:03:32.001Z,7.60
2024-02-12T04:06:08.010Z,7.60
2024-02-12T04:08:55.503Z,7.62
2024-02-12T04:11:30.802Z,7.64
2024-02-12T04:14:05.413Z,7.70
2024-02-12T04:16:39.791Z,7.70
2024-02-12T04:19:15.080Z,7.74
2024-02-12T04:21:50.985Z,7.70
2024-02-12T04:24:30.143Z,7.70
2024-02-12T04:27:05.461Z,7.70
2024-02-12T04:29:42.265Z,7.64
2024-02-12T04:32:17.544Z,7.60
2024-02-12T04:34:52.440Z,7.60
2024-02-12T04:37:29.593Z,7.58
2024-02-12T04:40:04.569Z,7.60
2024-02-12T04:42:39.267Z,7.56
2024-02-12T04:45:15.570Z,7.52
2024-02-12T04:47:51.962Z,7.50
2024-02-12T04:50:27.132Z,7.50
2024-02-12T04:53:01.702Z,7.50
2024-02-12T04:55:36.232Z,7.50
2024-02-12T04:58:11.015Z,7.50
2024-02-12T05:00:46.069Z,7.50
2024-02-12T05:03:20.552Z,7.50
2024-02-12T05:05:56.257Z,7.50
2024-02-12T05:08:30.819Z,7.50
2024-02-12T05:11:05.590Z,7.50
2024-02-12T05:13:40.425Z,7.50
2024-02-12T05:16:15.935Z,7.50
2024-02-12T05:19:07.683Z,7.50
2024-02-12T05:21:59.502Z,7.58
2024-02-12T05:24:34.054Z,7.60
2024-02-12T05:27:09.427Z,7.60
2024-02-12T05:29:44.523Z,7.60
2024-02-12T05:32:21.529Z,7.60
2024-02-12T05:34:57.364Z,7.60
2024-02-12T05:37:32.316Z,7.60
2024-02-12T05:40:10.293Z,7.56
2024-02-12T05:42:44.719Z,7.60
2024-02-12T05:45:20.210Z,7.60
2024-02-12T05:47:54.673Z,7.54
2024-02-12T05:50:29.273Z,7.50
2024-02-12T05:53:04.254Z,7.52
2024-02-12T05:55:41.956Z,7.50
2024-02-12T05:58:17.044Z,7.50
2024-02-12T06:00:52.034Z,7.50
2024-02-12T06:03:26.870Z,7.50
2024-02-12T06:06:05.656Z,7.50
2024-02-12T06:08:40.700Z,7.50
2024-02-12T06:11:16.332Z,7.58
2024-02-12T06:13:51.030Z,7.60
2024-02-12T06:16:26.103Z,7.62
2024-02-12T06:19:05.510Z,7.70
2024-02-12T06:21:40.634Z,7.70
2024-02-12T06:24:16.069Z,7.70
2024-02-12T06:26:51.379Z,7.76
2024-02-12T06:29:27.060Z,7.80
2024-02-12T06:32:01.684Z,7.90
2024-02-12T06:34:36.065Z,7.90
2024-02-12T06:37:10.627Z,7.90
2024-02-12T06:39:46.802Z,7.90
2024-02-12T06:42:21.652Z,7.90
2024-02-12T06:44:56.308Z,7.90
2024-02-12T06:47:31.985Z,7.90
2024-02-12T06:50:08.285Z,7.92
2024-02-12T06:52:43.816Z,8.00
2024-02-12T06:55:22.020Z,8.04
2024-02-12T06:57:59.150Z,8.12
2024-02-12T07:00:37.899Z,8.20
2024-02-12T07:03:14.115Z,8.30
2024-02-12T07:06:15.764Z,8.38
2024-02-12T07:08:52.902Z,8.40
2024-02-12T07:11:31.113Z,8.42
2024-02-12T07:14:49.494Z,8.50
2024-02-12T07:17:35.231Z,8.60
2024-02-12T07:20:30.330Z,8.70
2024-02-12T07:23:42.339Z,8.70
2024-02-12T07:26:31.885Z,8.80
2024-02-12T07:29:11.655Z,8.90
2024-02-12T07:32:07.056Z,8.90
2024-02-12T07:34:51.564Z,9.00
2024-02-12T07:37:43.150Z,9.06
2024-02-12T07:40:20.473Z,9.10
2024-02-12T07:42:56.128Z,9.20
2024-02-12T07:45:48.132Z,9.22
2024-02-12T07:48:23.222Z,9.30
2024-02-12T07:50:58.992Z,9.30
2024-02-12T07:53:33.568Z,9.32
2024-02-12T07:56:09.856Z,9.40
2024-02-12T07:58:44.956Z,9.50
2024-02-12T08:01:26.448Z,9.50
2024-02-12T08:04:01.592Z,9.50
2024-02-12T08:06:37.475Z,9.60
2024-02-12T08:09:12.441Z,9.60
2024-02-12T08:11:47.763Z,9.60
2024-02-12T08:14:23.401Z,9.62
2024-02-12T08:16:58.742Z,9.70
2024-02-12T08:19:33.434Z,9.70
2024-02-12T08:22:08.743Z,9.80
2024-02-12T08:24:44.078Z,9.80
2024-02-12T08:27:20.187Z,9.90
2024-02-12T08:29:55.341Z,9.90
2024-02-12T08:32:30.828Z,10.00
2024-02-12T08:35:08.305Z,10.00
2024-02-12T08:37:43.109Z,10.00
2024-02-12T08:40:19.196Z,10.00
2024-02-12T08:42:53.454Z,10.00
2024-02-12T08:45:30.310Z,10.10
2024-02-12T08:48:44.743Z,10.10
2024-02-12T08:51:47.617Z,10.18
2024-02-12T09:06:02.579Z,10.62
2024-02-12T09:08:38.359Z,10.80
2024-02-12T09:11:16.929Z,10.80
2024-02-12T09:14:11.672Z,10.90
2024-02-12T09:16:50.688Z,11.00
2024-02-12T09:19:25.258Z,11.00
2024-02-12T09:21:59.687Z,11.00
2024-02-12T09:24:34.751Z,11.00
2024-02-12T09:27:09.891Z,11.10
2024-02-12T09:29:48.960Z,11.20
2024-02-12T09:40:55.787Z,11.20
2024-02-12T09:43:56.671Z,11.20
2024-02-12T09:50:11.088Z,11.60
2024-02-12T09:53:25.948Z,11.70
2024-02-12T10:00:13.890Z,11.80
2024-02-12T10:07:07.725Z,11.70
2024-02-12T11:15:37.788Z,12.48
2024-02-12T11:23:00.640Z,12.40
2024-02-12T11:26:26.702Z,12.40
2024-02-12T11:30:15.821Z,12.30
2024-02-12T11:33:52.460Z,12.40
2024-02-12T11:38:08.851Z,12.46
2024-02-12T11:49:34.714Z,13.46
2024-02-12T12:11:23.669Z,12.92
2024-02-12T12:14:06.267Z,12.80
2024-02-12T12:16:38.321Z,12.72
2024-02-12T12:19:14.040Z,12.60
2024-02-12T12:21:55.686Z,12.50
2024-02-12T12:24:29.252Z,12.50
2024-02-12T12:27:05.873Z,12.40
2024-02-12T12:29:54.776Z,12.22
2024-02-12T12:32:31.712Z,12.00
2024-02-12T12:35:08.177Z,11.90
2024-02-12T12:37:42.920Z,11.80
2024-02-12T12:40:22.166Z,11.60
2024-02-12T12:42:58.367Z,11.60
2024-02-12T12:45:32.212Z,11.60
2024-02-12T12:48:08.243Z,11.60
2024-02-12T12:50:57.995Z,11.80
2024-02-12T12:53:38.810Z,12.02
2024-02-12T12:56:10.461Z,12.20
2024-02-12T12:58:41.790Z,12.40
2024-02-12T13:01:14.966Z,12.60
2024-02-12T13:03:47.584Z,12.74
2024-02-12T13:06:19.918Z,12.90
2024-02-12T13:08:55.466Z,13.00
2024-02-12T13:11:28.388Z,13.30
2024-02-12T13:13:59.644Z,13.50
2024-02-12T13:16:33.499Z,13.30
2024-02-12T13:19:05.827Z,13.06
2024-02-12T13:21:39.480Z,12.74
2024-02-12T13:24:11.755Z,12.50
2024-02-12T13:26:44.438Z,12.32
2024-02-12T13:29:24.468Z,12.20
2024-02-12T13:31:57.067Z,12.10
2024-02-12T13:34:29.382Z,11.90
2024-02-12T13:37:01.325Z,11.80
2024-02-12T13:39:32.805Z,11.70
2024-02-12T13:42:05.524Z,11.60
2024-02-12T13:44:38.504Z,11.50
2024-02-12T13:47:12.661Z,11.50
2024-02-12T13:49:45.004Z,11.60
2024-02-12T13:52:17.081Z,11.60
2024-02-12T13:54:49.056Z,11.60
2024-02-12T13:57:19.838Z,11.54
2024-02-12T13:59:55.669Z,11.50
2024-02-12T14:02:48.276Z,11.50
2024-02-12T14:05:21.692Z,11.50
2024-02-12T14:07:57.170Z,11.50
2024-02-12T14:10:28.576Z,11.50
2024-02-12T14:13:02.662Z,11.52
2024-02-12T14:16:03.865Z,11.60
2024-02-12T14:18:28.307Z,11.60
2024-02-12T14:21:00.553Z,11.60
2024-02-12T14:23:34.085Z,11.60
2024-02-12T14:26:12.710Z,11.60
2024-02-12T14:28:48.105Z,11.70
2024-02-12T14:31:25.411Z,11.80
2024-02-12T14:34:00.156Z,11.86
2024-02-12T14:36:32.982Z,11.92
2024-02-12T14:39:05.989Z,12.00
2024-02-12T14:41:44.295Z,12.30
2024-02-12T14:44:16.716Z,12.26
2024-02-12T14:46:51.403Z,12.20
2024-02-12T14:49:35.589Z,12.02
2024-02-12T14:52:21.995Z,11.90
2024-02-12T14:54:57.723Z,11.80
2024-02-12T14:57:38.335Z,11.70
2024-02-12T15:00:16.202Z,11.24
2024-02-12T15:02:51.807Z,10.72
2024-02-12T15:05:28.752Z,10.40
2024-02-12T15:08:02.776Z,10.10
2024-02-12T15:10:37.446Z,10.00
2024-02-12T15:13:13.894Z,10.00
2024-02-12T15:15:47.646Z,9.90
2024-02-12T15:18:19.745Z,9.90
2024-02-12T15:20:51.085Z,9.90
2024-02-12T15:23:28.780Z,9.90
2024-02-12T15:26:03.901Z,9.90
2024-02-12T15:28:39.200Z,9.80
2024-02-12T15:31:13.790Z,9.80
2024-02-12T15:33:51.837Z,9.70
2024-02-12T15:36:47.910Z,9.70
2024-02-12T15:39:31.966Z,9.70
2024-02-12T15:42:21.435Z,9.74
2024-02-12T15:45:27.019Z,9.80
2024-02-12T15:48:18.685Z,9.80
2024-02-12T15:51:03.254Z,9.90
2024-02-12T15:53:52.946Z,9.90
2024-02-12T15:56:30.969Z,9.90
2024-02-12T15:59:06.525Z,9.90
2024-02-12T16:01:42.662Z,9.80
2024-02-12T16:04:50.528Z,9.80
2024-02-12T16:19:05.008Z,9.54
2024-02-12T16:21:51.123Z,9.40
2024-02-12T16:24:35.865Z,9.42
2024-02-12T16:27:14.767Z,9.50
2024-02-12T16:30:05.297Z,9.56
2024-02-12T16:33:00.717Z,9.60
2024-02-12T16:35:47.902Z,9.60
2024-02-12T16:38:25.674Z,9.70
2024-02-12T16:41:01.238Z,9.70
2024-02-12T16:43:37.388Z,9.70
2024-02-12T16:46:13.217Z,9.60
2024-02-12T16:48:48.356Z,9.60
2024-02-12T16:51:23.308Z,9.60
2024-02-12T16:53:58.366Z,9.60
2024-02-12T16:56:34.588Z,9.52
2024-02-12T16:59:09.415Z,9.46
2024-02-12T17:01:46.270Z,9.40
2024-02-12T17:04:21.326Z,9.30
2024-02-12T17:06:57.343Z,9.12
2024-02-12T17:09:32.191Z,9.06
2024-02-12T17:12:14.721Z,9.00
2024-02-12T17:14:51.010Z,8.98
2024-02-12T17:17:33.777Z,9.00
2024-02-12T17:20:13.168Z,9.00
2024-02-12T17:22:48.496Z,9.00
2024-02-12T17:25:23.887Z,9.00
2024-02-12T17:27:58.666Z,8.90
2024-02-12T17:30:33.993Z,8.88
2024-02-12T17:33:11.050Z,8.80
2024-02-12T17:35:46.490Z,8.80
2024-02-12T17:38:21.774Z,8.86
2024-02-12T17:40:59.226Z,8.90
2024-02-12T17:43:35.794Z,8.90
2024-02-12T17:46:18.594Z,8.80
2024-02-12T17:48:54.173Z,8.72
2024-02-12T17:51:29.832Z,8.60
2024-02-12T17:54:09.428Z,8.60
2024-02-12T17:56:50.321Z,8.50
2024-02-12T17:59:26.408Z,8.50
2024-02-12T18:02:03.725Z,8.50
2024-02-12T18:04:41.859Z,8.40
2024-02-12T18:07:17.257Z,8.40
2024-02-12T18:09:53.157Z,8.32
2024-02-12T18:12:30.442Z,8.32
2024-02-12T18:15:06.985Z,8.30
2024-02-12T18:17:46.290Z,8.30
2024-02-12T18:20:25.465Z,8.20
2024-02-12T18:23:02.901Z,8.20
2024-02-12T18:25:37.998Z,8.20
2024-02-12T18:28:13.223Z,8.18
2024-02-12T18:30:50.262Z,8.20
2024-02-12T18:33:26.969Z,8.20
2024-02-12T18:36:05.866Z,8.26
2024-02-12T18:38:46.096Z,8.30
2024-02-12T18:41:24.847Z,8.36
2024-02-12T18:44:03.268Z,8.40
2024-02-12T18:46:40.129Z,8.40
2024-02-12T18:49:21.094Z,8.40
2024-02-12T18:52:07.312Z,8.30
2024-02-12T18:54:47.499Z,8.12
2024-02-12T18:57:37.048Z,8.08
2024-02-12T19:00:27.511Z,8.00
2024-02-12T19:03:12.152Z,8.00
2024-02-12T19:05:48.914Z,8.02
2024-02-12T19:08:24.733Z,8.10
2024-02-12T19:10:59.457Z,8.04
2024-02-12T19:13:36.093Z,8.00
2024-02-12T19:16:13.367Z,8.00
2024-02-12T19:18:56.458Z,8.00
2024-02-12T19:33:12.410Z,7.98
2024-02-12T19:35:43.209Z,8.10
2024-02-12T19:38:33.301Z,8.10
2024-02-12T19:41:13.130Z,8.00
2024-02-12T19:43:57.737Z,7.92
2024-02-12T19:46:29.165Z,7.90
2024-02-12T19:49:01.495Z,7.80
2024-02-12T19:51:32.569Z,7.80
2024-02-12T19:54:04.773Z,7.72
2024-02-12T19:56:37.738Z,7.70
2024-02-12T19:59:10.120Z,7.70
2024-02-12T20:01:42.888Z,7.60
2024-02-12T20:04:14.485Z,7.50
2024-02-12T20:06:45.670Z,7.40
2024-02-12T20:09:17.932Z,7.34
2024-02-12T20:11:52.252Z,7.30
2024-02-12T20:14:24.407Z,7.20
2024-02-12T20:16:54.975Z,7.20
2024-02-12T20:19:27.971Z,7.20
2024-02-12T20:35:24.102Z,7.36
2024-02-12T20:37:57.641Z,7.40
2024-02-12T20:40:39.325Z,7.40
2024-02-12T20:43:10.072Z,7.40
2024-02-12T20:46:06.827Z,7.40
2024-02-12T20:48:40.001Z,7.40
2024-02-12T20:51:15.020Z,7.40
2024-02-12T20:53:47.156Z,7.44
2024-02-12T20:56:27.093Z,7.40
2024-02-12T20:59:13.238Z,7.40
2024-02-12T21:01:50.588Z,7.30
2024-02-12T21:04:29.420Z,7.28
2024-02-12T21:07:06.528Z,7.22
2024-02-12T21:09:45.645Z,7.22
2024-02-12T21:12:35.693Z,7.28
2024-02-12T21:15:13.769Z,7.30
2024-02-12T21:17:53.563Z,7.30
2024-02-12T21:20:26.667Z,7.20
2024-02-12T21:22:59.203Z,7.10
2024-02-12T21:25:42.829Z,7.00
2024-02-12T21:28:15.985Z,7.00
2024-02-12T21:30:47.330Z,6.90
2024-02-12T21:33:21.669Z,6.80
2024-02-12T21:35:53.292Z,6.76
2024-02-12T21:38:29.961Z,6.70
2024-02-12T21:41:17.365Z,6.70
2024-02-12T21:43:49.533Z,6.70
2024-02-12T21:46:24.601Z,6.60
2024-02-12T21:48:58.188Z,6.60
2024-02-12T21:51:32.151Z,6.60
2024-02-12T21:54:04.212Z,6.60
2024-02-12T21:56:36.702Z,6.50
2024-02-12T21:59:07.976Z,6.48
2024-02-12T22:01:44.372Z,6.40
2024-02-12T22:04:16.437Z,6.40
2024-02-12T22:06:48.205Z,6.38
2024-02-12T22:09:22.788Z,6.40
2024-02-12T22:11:57.211Z,6.30
2024-02-12T22:14:29.990Z,6.30
2024-02-12T22:17:19.063Z,6.30
2024-02-12T22:19:54.678Z,6.20
2024-02-12T22:22:27.611Z,6.20
2024-02-12T22:25:07.535Z,6.12
2024-02-12T22:27:44.000Z,6.10
2024-02-12T22:30:22.224Z,6.10
2024-02-12T22:32:56.992Z,6.10
2024-02-12T22:35:31.467Z,6.10
2024-02-12T22:38:05.018Z,6.10
2024-02-12T22:40:38.988Z,6.00
2024-02-12T22:43:13.883Z,6.00
2024-02-12T22:45:53.790Z,6.00
2024-02-12T22:48:48.783Z,6.00
2024-02-12T22:52:18.512Z,6.00
2024-02-12T22:58:38.438Z,5.90
2024-02-12T23:01:46.257Z,5.90
2024-02-12T23:04:37.735Z,5.90
2024-02-12T23:07:38.548Z,5.90
2024-02-12T23:10:41.857Z,5.80
2024-02-12T23:14:12.088Z,5.80
2024-02-12T23:35:00.856Z,6.04
2024-02-12T23:38:06.252Z,6.10
2024-02-12T23:40:56.489Z,6.20
2024-02-12T23:43:45.046Z,6.30
2024-02-12T23:46:38.468Z,6.40
2024-02-12T23:49:31.385Z,6.40
2024-02-12T23:52:36.572Z,6.40
2024-02-12T23:55:18.909Z,6.48
2024-02-12T23:58:14.435Z,6.50
